Latest Weather Observations for Esperance Airport

IDW60801

Issued at 8:32 pm WST Wednesday 1 July 2015 (issued every 30 minutes, with the page automatically refreshed every 10 minutes)

About weather observations | Map of weather stations | Latest weather observations for WA | Other Formats
Station Details ID: 009542 Name: ESPERANCE AERO Lat: -33.68 Lon: 121.83 Height: 142.0 m
Data from the previous 72 hours. | See also: Recent months at Esperance Airport
Date/Time
WST
Temp
°C
App
Temp
°C
Dew
Point
Rel
Hum
%
Delta-T
°C
Wind Press
QNH
hPa
Press
MSL
hPa
Rain
since 9 am
mm
Dir
 
Spd
km/h
Gust
km/h
Spd
kts
Gust
kts
01/08:30pm 14.3 11.9 8.5 68 2.9 NNE 11 15 6 8 1026.6 1026.7 0.0
01/08:00pm 13.7 11.1 9.4 75 2.2 NNE 13 15 7 8 1026.5 1026.6 0.0
01/07:30pm 14.1 11.5 9.5 74 2.4 N 13 15 7 8 1026.5 1026.6 0.0
01/07:00pm 15.5 12.9 9.2 66 3.2 NNE 13 17 7 9 1026.4 1026.5 0.0
01/06:30pm 16.2 13.6 9.2 63 3.6 NNE 13 17 7 9 1025.8 1025.9 0.0
01/06:00pm 16.2 13.7 9.6 65 3.4 NNE 13 15 7 8 1025.8 1025.9 0.0
01/05:30pm 15.9 13.9 10.0 68 3.1 NNE 11 15 6 8 1025.6 1025.7 0.0
01/05:00pm 16.0 14.7 11.2 73 2.6 NNE 9 11 5 6 1025.4 1025.4 0.0
01/04:30pm 17.1 17.1 11.2 68 3.2 N 2 7 1 4 1025.3 1025.3 0.0
01/04:00pm 18.7 18.0 11.3 62 4.0 NW 6 7 3 4 1025.5 1025.6 0.0
01/03:30pm 19.2 17.7 10.7 58 4.6 NNW 9 13 5 7 1025.4 1025.4 0.0
01/03:00pm 19.9 18.2 11.1 57 4.8 NW 11 15 6 8 1025.3 1025.3 0.0
01/02:30pm 19.9 17.4 9.8 52 5.4 NW 13 17 7 9 1025.1 1025.1 0.0
01/02:00pm 19.7 16.6 8.7 49 5.8 NW 15 20 8 11 1025.1 1025.1 0.0
01/01:30pm 20.1 17.5 10.8 55 5.1 NW 15 19 8 10 1025.2 1025.2 0.0
01/01:00pm 19.4 16.0 9.3 52 5.3 WNW 17 20 9 11 1025.2 1025.2 0.0
01/12:30pm 18.9 15.6 9.4 54 5.0 WNW 17 20 9 11 1025.4 1025.4 0.0
01/12:00pm 18.2 14.8 9.3 56 4.7 WNW 17 20 9 11 1025.8 1025.9 0.0
01/11:30am 17.9 13.8 8.7 55 4.8 WNW 20 28 11 15 1026.4 1026.5 0.0
01/11:00am 18.0 13.7 8.0 52 5.1 NW 20 30 11 16 1026.8 1026.9 0.0
01/10:30am 17.4 12.8 8.0 54 4.8 NW 22 32 12 17 1027.0 1027.1 0.0
01/10:00am 16.8 12.3 6.9 52 4.9 NNW 20 28 11 15 1027.1 1027.2 0.0
01/09:30am 14.0 9.6 7.3 64 3.3 NNW 20 24 11 13 1027.3 1027.4 0.0
01/09:00am 13.4 9.0 6.7 64 3.2 NNW 19 24 10 13 1027.0 1027.1 0.0
01/08:30am 13.0 9.0 6.8 66 3.0 NNW 17 22 9 12 1026.8 1026.9 0.0
01/08:00am 12.8 8.4 6.4 65 3.0 NNW 19 22 10 12 1026.5 1026.6 0.0
01/07:30am 11.8 8.1 6.3 69 2.6 NNW 15 19 8 10 1026.3 1026.3 0.0
01/07:00am 11.8 7.3 6.3 69 2.6 N 19 22 10 12 1026.0 1026.0 0.0
01/06:30am 11.2 6.7 6.3 72 2.3 N 19 24 10 13 1025.6 1025.6 0.0
01/06:00am 11.5 7.1 6.4 71 2.4 N 19 24 10 13 1025.4 1025.4 0.0
01/05:30am 11.5 6.8 6.2 70 2.5 N 20 24 11 13 1025.1 1025.1 0.0
01/05:00am 11.4 6.9 6.3 71 2.4 N 19 22 10 12 1025.2 1025.2 0.0
01/04:30am 11.6 7.5 6.3 70 2.5 N 17 20 9 11 1024.9 1024.9 0.0
01/04:00am 11.8 7.3 6.3 69 2.6 N 19 22 10 12 1024.9 1024.9 0.0
01/03:30am 11.5 7.1 6.4 71 2.4 N 19 22 10 12 1025.1 1025.1 0.0
01/03:00am 11.5 7.1 6.6 72 2.3 N 19 22 10 12 1024.9 1024.9 0.0
01/02:30am 11.9 7.5 6.4 69 2.6 N 19 22 10 12 1025.4 1025.4 0.0
01/02:00am 12.0 7.4 6.3 68 2.7 N 20 24 11 13 1025.3 1025.3 0.0
01/01:30am 12.3 7.7 6.4 67 2.8 N 20 26 11 14 1024.7 1024.7 0.0
01/01:00am 12.4 7.9 6.2 66 2.9 N 19 26 10 14 1025.2 1025.2 0.0
01/12:30am 12.2 8.2 6.5 68 2.7 N 17 22 9 12 1025.3 1025.3 0.0
01/12:00am 11.4 6.9 6.9 74 2.1 N 20 24 11 13 1025.2 1025.2 0.0
 
Date/Time
WST
Temp
°C
App
Temp
°C
Dew
Point
Rel
Hum
%
Delta-T
°C
Wind Press
QNH
hPa
Press
MSL
hPa
Rain
since 9 am
mm
Dir
 
Spd
km/h
Gust
km/h
Spd
kts
Gust
kts
30/11:30pm 12.2 8.3 6.9 70 2.6 N 17 22 9 12 1025.6 1025.6 0.0
30/11:00pm 12.5 8.2 6.8 68 2.7 N 19 22 10 12 1025.5 1025.5 0.0
30/10:30pm 12.9 8.3 6.5 65 3.1 N 20 28 11 15 1025.4 1025.4 0.0
30/10:00pm 13.0 8.5 6.8 66 3.0 N 20 26 11 14 1025.4 1025.4 0.0
30/09:30pm 12.9 8.3 6.7 66 3.0 N 20 24 11 13 1025.6 1025.6 0.0
30/09:00pm 13.2 9.2 6.8 65 3.1 N 17 22 9 12 1025.7 1025.7 0.0
30/08:30pm 13.8 10.2 6.9 63 3.4 NNE 15 19 8 10 1025.8 1025.8 0.0
30/08:00pm 14.0 10.9 7.3 64 3.3 NNE 13 17 7 9 1025.6 1025.6 0.0
30/07:30pm 13.9 10.5 7.7 66 3.1 N 15 17 8 9 1025.7 1025.7 0.0
30/07:00pm 13.8 10.4 7.8 67 3.0 NNE 15 19 8 10 1025.7 1025.7 0.0
30/06:30pm 14.5 11.5 7.8 64 3.4 NNE 13 19 7 10 1025.5 1025.5 0.0
30/06:00pm 13.9 11.5 8.5 70 2.7 NNE 11 17 6 9 1025.3 1025.3 0.0
30/05:30pm 13.5 10.9 9.2 75 2.2 N 13 15 7 8 1025.0 1025.0 0.0
30/05:00pm 14.5 11.9 9.3 71 2.7 N 13 17 7 9 1024.6 1024.6 0.0
30/04:30pm 15.7 13.2 9.8 68 3.1 NNE 13 17 7 9 1024.2 1024.2 0.0
30/04:00pm 17.0 14.4 9.2 60 4.1 NNE 13 17 7 9 1024.3 1024.3 0.0
30/03:30pm 17.1 14.3 10.0 63 3.8 N 15 17 8 9 1024.4 1024.4 0.0
30/03:00pm 19.4 17.3 9.6 53 5.2 NNW 11 15 6 8 1024.6 1024.6 0.0
30/02:30pm 18.6 15.0 8.3 51 5.3 NW 17 24 9 13 1024.8 1024.8 0.0
30/02:00pm 19.0 15.4 8.4 50 5.5 NW 17 22 9 12 1024.7 1024.7 0.0
30/01:30pm 19.0 15.5 8.6 51 5.4 NW 17 24 9 13 1024.8 1024.8 0.0
30/01:00pm 17.7 14.5 8.6 55 4.7 NW 15 20 8 11 1025.1 1025.1 0.0
30/12:30pm 18.6 14.5 8.0 50 5.5 NW 19 24 10 13 1025.4 1025.4 0.0
30/12:00pm 18.6 14.2 7.4 48 5.7 NNW 20 28 11 15 1025.6 1025.6 0.0
30/11:30am 18.4 14.1 7.8 50 5.4 NNW 20 28 11 15 1026.1 1026.1 0.0
30/11:00am 17.4 12.9 6.9 50 5.2 NNW 20 32 11 17 1026.6 1026.6 0.0
30/10:30am 16.5 12.2 7.7 56 4.5 NNW 20 26 11 14 1027.1 1027.1 0.0
30/10:00am 15.2 10.3 7.0 58 4.0 NNW 22 32 12 17 1027.3 1027.3 0.0
30/09:30am 13.8 8.7 6.2 60 3.7 NNW 22 28 12 15 1027.3 1027.3 0.0
30/09:00am 11.7 6.4 5.1 64 3.0 N 22 28 12 15 1027.4 1027.4 0.2
30/08:30am 10.4 5.0 4.3 66 2.7 N 22 30 12 16 1027.4 1027.4 0.2
30/08:00am 9.1 4.2 3.9 70 2.3 N 19 24 10 13 1027.4 1027.4 0.2
30/07:30am 7.1 1.9 3.3 77 1.6 N 20 24 11 13 1027.0 1027.0 0.2
30/07:00am 6.7 1.4 3.1 78 1.5 N 20 24 11 13 1026.5 1026.5 0.2
30/06:30am 7.1 1.8 3.2 76 1.7 N 20 26 11 14 1026.4 1026.4 0.2
30/06:00am 6.5 1.3 3.3 80 1.3 N 20 24 11 13 1026.1 1026.1 0.2
30/05:30am 6.6 1.0 3.4 80 1.4 N 22 24 12 13 1025.9 1025.9 0.2
30/05:00am 6.7 1.1 3.5 80 1.4 N 22 24 12 13 1025.9 1025.9 0.2
30/04:30am 6.8 1.2 3.2 78 1.5 N 22 30 12 16 1025.9 1025.9 0.2
30/04:00am 6.7 0.7 3.5 80 1.4 N 24 28 13 15 1025.9 1025.9 0.2
30/03:30am 7.1 1.5 3.5 78 1.5 N 22 24 12 13 1026.0 1026.0 0.2
30/03:00am 7.4 1.8 3.6 77 1.6 N 22 26 12 14 1025.8 1025.8 0.2
30/02:30am 7.5 1.9 3.7 77 1.6 N 22 28 12 15 1026.0 1026.0 0.2
30/02:00am 7.8 2.3 3.8 76 1.7 N 22 24 12 13 1026.2 1026.2 0.2
30/01:30am 7.8 2.2 3.7 75 1.8 N 22 26 12 14 1026.1 1026.1 0.2
30/01:00am 7.5 2.6 4.3 80 1.4 N 19 20 10 11 1026.3 1026.3 0.2
30/12:30am 8.0 3.1 4.0 76 1.7 N 19 20 10 11 1026.3 1026.3 0.2
30/12:00am 8.9 3.5 4.5 74 1.9 N 22 26 12 14 1026.4 1026.4 0.2
 
Date/Time
WST
Temp
°C
App
Temp
°C
Dew
Point
Rel
Hum
%
Delta-T
°C
Wind Press
QNH
hPa
Press
MSL
hPa
Rain
since 9 am
mm
Dir
 
Spd
km/h
Gust
km/h
Spd
kts
Gust
kts
29/11:30pm 9.5 4.7 4.7 72 2.2 N 19 22 10 12 1026.4 1026.4 0.2
29/11:00pm 9.9 5.6 5.3 73 2.1 N 17 20 9 11 1026.6 1026.6 0.2
29/10:30pm 10.9 6.2 5.2 68 2.6 NNE 19 22 10 12 1026.6 1026.6 0.2
29/10:00pm 11.4 6.7 5.3 66 2.8 NNE 19 24 10 13 1026.7 1026.7 0.2
29/09:30pm 11.3 7.0 5.2 66 2.8 NNE 17 22 9 12 1027.0 1027.0 0.2
29/09:00pm 11.3 7.4 5.4 67 2.7 NNE 15 20 8 11 1027.0 1027.0 0.2
29/08:30pm 11.9 7.7 5.5 65 3.0 NNE 17 20 9 11 1027.2 1027.2 0.2
29/08:00pm 12.0 7.8 5.6 65 3.0 NNE 17 20 9 11 1027.3 1027.3 0.2
29/07:30pm 12.2 8.8 5.8 65 3.0 NNE 13 17 7 9 1027.4 1027.4 0.2
29/07:00pm 12.5 9.1 6.1 65 3.0 NNE 13 17 7 9 1027.4 1027.4 0.2
29/06:30pm 12.8 9.5 6.4 65 3.1 NNE 13 17 7 9 1027.4 1027.4 0.2
29/06:00pm 12.7 9.8 6.3 65 3.0 NE 11 13 6 7 1027.2 1027.2 0.2
29/05:30pm 13.6 10.3 6.5 62 3.4 NNE 13 17 7 9 1026.8 1026.8 0.2
29/05:00pm 14.0 11.3 7.5 65 3.2 NNE 11 13 6 7 1026.8 1026.8 0.2
29/04:30pm 15.1 13.0 8.1 63 3.5 NNE 9 11 5 6 1026.6 1026.6 0.2
29/04:00pm 15.9 13.8 8.2 60 3.9 NNE 9 11 5 6 1026.8 1026.8 0.2
29/03:30pm 16.5 14.2 9.0 61 3.9 N 11 15 6 8 1026.9 1026.9 0.2
29/03:00pm 17.3 14.1 8.4 56 4.6 N 15 20 8 11 1026.9 1026.9 0.2
29/02:30pm 17.4 13.2 7.5 52 5.0 N 19 26 10 14 1026.8 1026.8 0.2
29/02:00pm 17.6 13.6 6.8 49 5.4 NNW 17 24 9 13 1027.1 1027.1 0.2
29/01:30pm 17.9 13.8 8.5 54 4.9 NNW 20 26 11 14 1027.3 1027.3 0.2
29/01:00pm 17.6 13.4 7.6 52 5.1 NNW 19 28 10 15 1027.6 1027.6 0.2
29/12:30pm 17.4 12.8 8.0 54 4.8 NNW 22 30 12 16 1028.0 1028.0 0.2
29/12:00pm 16.7 12.0 7.9 56 4.4 NNW 22 30 12 16 1028.4 1028.4 0.2
29/11:30am 16.4 11.5 8.6 60 4.0 N 24 33 13 18 1028.9 1029.0 0.0
29/11:00am 15.8 11.0 9.0 64 3.5 N 24 32 13 17 1029.3 1029.4 0.0
29/10:30am 14.7 9.5 7.3 61 3.7 N 24 33 13 18 1029.6 1029.7 0.0
29/10:00am 14.2 9.8 9.0 71 2.6 N 22 28 12 15 1030.0 1030.1 0.0
29/09:30am 12.9 9.0 9.4 79 1.8 N 20 26 11 14 1030.1 1030.2 0.0
29/09:00am 12.0 7.5 8.5 79 1.7 N 22 28 12 15 1029.9 1030.0 0.0
29/08:30am 11.1 7.2 8.7 85 1.2 N 19 24 10 13 1029.7 1029.8 0.0
29/08:00am 9.9 5.9 8.3 90 0.8 N 19 28 10 15 1029.7 1029.8 0.0
29/07:30am 9.1 5.0 8.0 93 0.5 N 19 22 10 12 1029.7 1029.8 0.0
29/07:00am 9.6 5.6 8.4 92 0.6 N 19 22 10 12 1029.5 1029.6 0.0
29/06:30am 10.5 6.7 8.9 90 0.8 N 19 26 10 14 1029.5 1029.6 0.0
29/06:00am 10.7 6.4 9.3 91 0.7 N 22 28 12 15 1029.6 1029.7 0.0
29/05:30am 10.7 7.1 9.9 95 0.4 N 19 24 10 13 1029.5 1029.6 0.0
29/05:00am 10.6 7.0 10.0 96 0.3 N 19 22 10 12 1029.5 1029.6 0.0
29/04:30am 10.7 7.2 10.2 97 0.3 N 19 22 10 12 1029.4 1029.5 0.0
29/04:00am 10.7 7.6 10.2 97 0.3 N 17 22 9 12 1029.4 1029.5 0.0
29/03:30am 11.0 7.9 10.4 96 0.3 N 17 22 9 12 1029.2 1029.3 0.0
29/03:00am 11.3 7.9 10.5 95 0.4 NNE 19 26 10 14 1029.2 1029.3 0.0
29/02:30am 11.4 8.6 11.2 99 0.1 NNE 17 22 9 12 1029.4 1029.5 0.0
29/02:00am 11.6 8.8 11.4 99 0.1 NNE 17 22 9 12 1029.7 1029.8 0.0
29/01:30am 11.7 8.9 11.5 99 0.1 NNE 17 22 9 12 1029.9 1030.0 0.0
29/01:00am 11.6 8.8 11.4 99 0.1 NNE 17 26 9 14 1030.1 1030.2 0.0
29/12:30am 11.5 9.1 11.3 99 0.1 NNE 15 20 8 11 1030.3 1030.4 0.0
29/12:00am 11.5 8.7 11.3 99 0.1 NNE 17 22 9 12 1030.5 1030.6 0.0
 
Date/Time
WST
Temp
°C
App
Temp
°C
Dew
Point
Rel
Hum
%
Delta-T
°C
Wind Press
QNH
hPa
Press
MSL
hPa
Rain
since 9 am
mm
Dir
 
Spd
km/h
Gust
km/h
Spd
kts
Gust
kts
28/11:30pm 11.7 9.3 11.5 99 0.1 NE 15 22 8 12 1030.7 1030.8 0.0
28/11:00pm 11.6 9.2 11.4 99 0.1 NE 15 19 8 10 1030.9 1031.0 0.0
28/10:30pm 11.4 9.3 11.2 99 0.1 NE 13 19 7 10 1031.2 1031.2 0.0
28/10:00pm 11.2 9.1 11.0 99 0.1 NE 13 19 7 10 1031.5 1031.5 0.0
28/09:30pm 11.4 8.9 11.2 99 0.1 ENE 15 22 8 12 1031.4 1031.4 0.0
28/09:00pm 11.3 8.8 11.1 99 0.1 ENE 15 20 8 11 1031.4 1031.4 0.0

Other Formats:

Comma delimited format used in spreadsheet applications
http://www.bom.gov.au/fwo/IDW60801/IDW60801.95638.axf

JavaScript Object Notation format (JSON) in row-major order
http://www.bom.gov.au/fwo/IDW60801/IDW60801.95638.json